sensor_id;sensor_type;location;lat;lon;timestamp;P1;durP1;ratioP1;P2;durP2;ratioP2
21727;SDS011;11026;50.560;17.852;2023-05-20T00:01:10;36.15;;;27.58;;
21727;SDS011;11026;50.560;17.852;2023-05-20T00:03:37;35.00;;;27.52;;
21727;SDS011;11026;50.560;17.852;2023-05-20T00:06:05;35.53;;;27.25;;
21727;SDS011;11026;50.560;17.852;2023-05-20T00:08:32;35.45;;;27.33;;
21727;SDS011;11026;50.560;17.852;2023-05-20T00:11:01;36.50;;;27.90;;
21727;SDS011;11026;50.560;17.852;2023-05-20T00:13:29;36.88;;;27.55;;
21727;SDS011;11026;50.560;17.852;2023-05-20T00:15:57;34.33;;;26.55;;
21727;SDS011;11026;50.560;17.852;2023-05-20T00:18:33;36.60;;;26.92;;
21727;SDS011;11026;50.560;17.852;2023-05-20T00:21:01;37.53;;;27.60;;
21727;SDS011;11026;50.560;17.852;2023-05-20T00:23:34;38.10;;;27.52;;
21727;SDS011;11026;50.560;17.852;2023-05-20T00:26:02;40.92;;;29.23;;
21727;SDS011;11026;50.560;17.852;2023-05-20T00:28:30;38.70;;;28.27;;
21727;SDS011;11026;50.560;17.852;2023-05-20T00:30:58;39.15;;;28.10;;
21727;SDS011;11026;50.560;17.852;2023-05-20T00:33:27;39.15;;;30.02;;
21727;SDS011;11026;50.560;17.852;2023-05-20T00:35:56;41.38;;;30.40;;
21727;SDS011;11026;50.560;17.852;2023-05-20T00:38:23;41.33;;;29.92;;
21727;SDS011;11026;50.560;17.852;2023-05-20T00:40:51;40.95;;;29.90;;
21727;SDS011;11026;50.560;17.852;2023-05-20T00:45:51;39.00;;;29.27;;
21727;SDS011;11026;50.560;17.852;2023-05-20T00:48:21;41.78;;;31.02;;
21727;SDS011;11026;50.560;17.852;2023-05-20T00:50:55;40.08;;;30.27;;
21727;SDS011;11026;50.560;17.852;2023-05-20T00:53:22;45.33;;;30.92;;
21727;SDS011;11026;50.560;17.852;2023-05-20T00:55:56;43.60;;;30.20;;
21727;SDS011;11026;50.560;17.852;2023-05-20T00:58:24;42.25;;;30.60;;
21727;SDS011;11026;50.560;17.852;2023-05-20T01:00:52;38.03;;;29.40;;
21727;SDS011;11026;50.560;17.852;2023-05-20T01:03:20;40.90;;;28.48;;
21727;SDS011;11026;50.560;17.852;2023-05-20T01:05:48;37.92;;;28.55;;
21727;SDS011;11026;50.560;17.852;2023-05-20T01:08:18;37.25;;;27.60;;
21727;SDS011;11026;50.560;17.852;2023-05-20T01:10:57;39.28;;;27.40;;
21727;SDS011;11026;50.560;17.852;2023-05-20T01:13:27;39.83;;;27.58;;
21727;SDS011;11026;50.560;17.852;2023-05-20T01:16:02;40.83;;;28.42;;
21727;SDS011;11026;50.560;17.852;2023-05-20T01:18:30;45.17;;;28.25;;
21727;SDS011;11026;50.560;17.852;2023-05-20T01:20:59;38.08;;;26.35;;
21727;SDS011;11026;50.560;17.852;2023-05-20T01:23:37;36.75;;;25.88;;
21727;SDS011;11026;50.560;17.852;2023-05-20T01:26:09;40.22;;;26.83;;
21727;SDS011;11026;50.560;17.852;2023-05-20T01:28:41;36.25;;;26.63;;
21727;SDS011;11026;50.560;17.852;2023-05-20T01:31:13;41.15;;;27.35;;
21727;SDS011;11026;50.560;17.852;2023-05-20T01:33:46;35.67;;;25.50;;
21727;SDS011;11026;50.560;17.852;2023-05-20T01:36:18;38.35;;;25.35;;
21727;SDS011;11026;50.560;17.852;2023-05-20T01:38:50;34.10;;;24.65;;
21727;SDS011;11026;50.560;17.852;2023-05-20T01:41:20;33.83;;;24.40;;
21727;SDS011;11026;50.560;17.852;2023-05-20T01:43:51;36.67;;;23.50;;
21727;SDS011;11026;50.560;17.852;2023-05-20T01:46:19;31.67;;;22.70;;
21727;SDS011;11026;50.560;17.852;2023-05-20T01:48:52;33.72;;;23.67;;
21727;SDS011;11026;50.560;17.852;2023-05-20T01:51:20;36.10;;;24.38;;
21727;SDS011;11026;50.560;17.852;2023-05-20T01:53:48;32.53;;;23.65;;
21727;SDS011;11026;50.560;17.852;2023-05-20T01:56:16;33.75;;;23.75;;
21727;SDS011;11026;50.560;17.852;2023-05-20T01:58:44;35.42;;;25.70;;
21727;SDS011;11026;50.560;17.852;2023-05-20T02:01:12;31.00;;;24.23;;
21727;SDS011;11026;50.560;17.852;2023-05-20T02:03:40;35.88;;;25.45;;
21727;SDS011;11026;50.560;17.852;2023-05-20T02:06:09;35.38;;;25.58;;
21727;SDS011;11026;50.560;17.852;2023-05-20T02:08:36;36.17;;;25.27;;
21727;SDS011;11026;50.560;17.852;2023-05-20T02:11:04;33.60;;;25.30;;
21727;SDS011;11026;50.560;17.852;2023-05-20T02:13:31;37.92;;;24.90;;
21727;SDS011;11026;50.560;17.852;2023-05-20T02:15:59;35.22;;;25.40;;
21727;SDS011;11026;50.560;17.852;2023-05-20T02:18:27;36.30;;;26.10;;
21727;SDS011;11026;50.560;17.852;2023-05-20T02:20:55;36.92;;;24.58;;
21727;SDS011;11026;50.560;17.852;2023-05-20T02:23:22;35.13;;;24.80;;
21727;SDS011;11026;50.560;17.852;2023-05-20T02:25:50;38.40;;;25.02;;
21727;SDS011;11026;50.560;17.852;2023-05-20T02:28:17;36.30;;;25.58;;
21727;SDS011;11026;50.560;17.852;2023-05-20T02:30:45;36.45;;;25.80;;
21727;SDS011;11026;50.560;17.852;2023-05-20T02:33:13;34.20;;;24.80;;
21727;SDS011;11026;50.560;17.852;2023-05-20T02:35:41;35.50;;;24.40;;
21727;SDS011;11026;50.560;17.852;2023-05-20T02:38:14;35.97;;;23.90;;
21727;SDS011;11026;50.560;17.852;2023-05-20T02:40:47;36.40;;;24.85;;
21727;SDS011;11026;50.560;17.852;2023-05-20T02:43:15;30.92;;;23.45;;
21727;SDS011;11026;50.560;17.852;2023-05-20T02:45:43;34.35;;;23.55;;
21727;SDS011;11026;50.560;17.852;2023-05-20T02:48:11;31.90;;;23.30;;
21727;SDS011;11026;50.560;17.852;2023-05-20T02:50:38;33.28;;;23.40;;
21727;SDS011;11026;50.560;17.852;2023-05-20T02:53:06;34.17;;;23.38;;
21727;SDS011;11026;50.560;17.852;2023-05-20T02:55:33;32.63;;;23.05;;
21727;SDS011;11026;50.560;17.852;2023-05-20T02:58:08;33.22;;;23.83;;
21727;SDS011;11026;50.560;17.852;2023-05-20T03:00:35;33.90;;;23.15;;
21727;SDS011;11026;50.560;17.852;2023-05-20T03:03:06;33.40;;;22.80;;
21727;SDS011;11026;50.560;17.852;2023-05-20T03:05:36;30.95;;;23.92;;
21727;SDS011;11026;50.560;17.852;2023-05-20T03:08:07;33.72;;;25.27;;
21727;SDS011;11026;50.560;17.852;2023-05-20T03:10:36;36.97;;;27.02;;
21727;SDS011;11026;50.560;17.852;2023-05-20T03:13:05;39.08;;;27.35;;
21727;SDS011;11026;50.560;17.852;2023-05-20T03:15:37;35.45;;;27.75;;
21727;SDS011;11026;50.560;17.852;2023-05-20T03:18:06;41.97;;;28.88;;
21727;SDS011;11026;50.560;17.852;2023-05-20T03:20:37;39.20;;;28.75;;
21727;SDS011;11026;50.560;17.852;2023-05-20T03:23:06;44.67;;;29.52;;
21727;SDS011;11026;50.560;17.852;2023-05-20T03:25:35;41.60;;;30.00;;
21727;SDS011;11026;50.560;17.852;2023-05-20T03:28:04;41.30;;;30.20;;
21727;SDS011;11026;50.560;17.852;2023-05-20T03:30:32;40.47;;;28.60;;
21727;SDS011;11026;50.560;17.852;2023-05-20T03:32:59;40.38;;;28.50;;
21727;SDS011;11026;50.560;17.852;2023-05-20T03:35:30;37.70;;;29.00;;
21727;SDS011;11026;50.560;17.852;2023-05-20T03:37:59;36.00;;;26.58;;
21727;SDS011;11026;50.560;17.852;2023-05-20T03:40:27;36.92;;;28.00;;
21727;SDS011;11026;50.560;17.852;2023-05-20T03:42:54;38.72;;;27.75;;
21727;SDS011;11026;50.560;17.852;2023-05-20T03:45:22;38.53;;;27.40;;
21727;SDS011;11026;50.560;17.852;2023-05-20T03:47:51;40.03;;;28.95;;
21727;SDS011;11026;50.560;17.852;2023-05-20T03:50:19;39.90;;;28.08;;
21727;SDS011;11026;50.560;17.852;2023-05-20T03:52:47;40.25;;;27.35;;
21727;SDS011;11026;50.560;17.852;2023-05-20T03:55:16;39.60;;;28.58;;
21727;SDS011;11026;50.560;17.852;2023-05-20T03:57:46;38.58;;;27.83;;
21727;SDS011;11026;50.560;17.852;2023-05-20T04:00:14;33.33;;;25.98;;
21727;SDS011;11026;50.560;17.852;2023-05-20T04:02:42;33.60;;;24.52;;
21727;SDS011;11026;50.560;17.852;2023-05-20T04:05:11;33.42;;;24.25;;
21727;SDS011;11026;50.560;17.852;2023-05-20T04:07:39;34.95;;;24.38;;
21727;SDS011;11026;50.560;17.852;2023-05-20T04:10:07;30.88;;;22.83;;
21727;SDS011;11026;50.560;17.852;2023-05-20T04:12:36;34.33;;;23.08;;
21727;SDS011;11026;50.560;17.852;2023-05-20T04:15:04;34.22;;;23.58;;
21727;SDS011;11026;50.560;17.852;2023-05-20T04:17:32;31.92;;;22.83;;
21727;SDS011;11026;50.560;17.852;2023-05-20T04:20:01;32.15;;;22.60;;
21727;SDS011;11026;50.560;17.852;2023-05-20T04:22:31;31.92;;;22.83;;
21727;SDS011;11026;50.560;17.852;2023-05-20T04:24:58;34.63;;;23.15;;
21727;SDS011;11026;50.560;17.852;2023-05-20T04:27:27;26.92;;;21.58;;
21727;SDS011;11026;50.560;17.852;2023-05-20T04:29:54;31.58;;;22.52;;
21727;SDS011;11026;50.560;17.852;2023-05-20T04:32:24;29.40;;;22.58;;
21727;SDS011;11026;50.560;17.852;2023-05-20T04:34:52;32.75;;;22.90;;
21727;SDS011;11026;50.560;17.852;2023-05-20T04:37:22;29.83;;;21.95;;
21727;SDS011;11026;50.560;17.852;2023-05-20T04:39:49;29.42;;;21.08;;
21727;SDS011;11026;50.560;17.852;2023-05-20T04:44:50;29.00;;;21.38;;
21727;SDS011;11026;50.560;17.852;2023-05-20T04:47:18;29.17;;;21.38;;
21727;SDS011;11026;50.560;17.852;2023-05-20T04:49:45;29.35;;;21.00;;
21727;SDS011;11026;50.560;17.852;2023-05-20T04:52:14;26.33;;;20.52;;
21727;SDS011;11026;50.560;17.852;2023-05-20T04:54:41;29.90;;;20.35;;
21727;SDS011;11026;50.560;17.852;2023-05-20T04:57:08;27.52;;;20.35;;
21727;SDS011;11026;50.560;17.852;2023-05-20T04:59:36;27.77;;;20.95;;
21727;SDS011;11026;50.560;17.852;2023-05-20T05:02:04;26.77;;;20.73;;
21727;SDS011;11026;50.560;17.852;2023-05-20T05:04:31;32.03;;;20.60;;
21727;SDS011;11026;50.560;17.852;2023-05-20T05:07:01;28.40;;;21.08;;
21727;SDS011;11026;50.560;17.852;2023-05-20T05:09:29;30.27;;;21.60;;
21727;SDS011;11026;50.560;17.852;2023-05-20T05:11:59;29.65;;;21.27;;
21727;SDS011;11026;50.560;17.852;2023-05-20T05:14:34;26.45;;;19.35;;
21727;SDS011;11026;50.560;17.852;2023-05-20T05:17:01;31.27;;;22.02;;
21727;SDS011;11026;50.560;17.852;2023-05-20T05:19:28;28.83;;;20.40;;
21727;SDS011;11026;50.560;17.852;2023-05-20T05:21:56;30.23;;;21.83;;
21727;SDS011;11026;50.560;17.852;2023-05-20T05:24:24;28.88;;;21.20;;
21727;SDS011;11026;50.560;17.852;2023-05-20T05:26:52;30.67;;;21.60;;
21727;SDS011;11026;50.560;17.852;2023-05-20T05:29:20;26.90;;;20.50;;
21727;SDS011;11026;50.560;17.852;2023-05-20T05:31:48;27.02;;;19.63;;
21727;SDS011;11026;50.560;17.852;2023-05-20T05:34:16;28.80;;;20.27;;
21727;SDS011;11026;50.560;17.852;2023-05-20T05:36:43;27.38;;;20.17;;
21727;SDS011;11026;50.560;17.852;2023-05-20T05:39:11;24.33;;;19.63;;
21727;SDS011;11026;50.560;17.852;2023-05-20T05:41:44;29.05;;;20.60;;
21727;SDS011;11026;50.560;17.852;2023-05-20T05:46:43;25.83;;;19.13;;
21727;SDS011;11026;50.560;17.852;2023-05-20T05:49:11;26.42;;;19.88;;
21727;SDS011;11026;50.560;17.852;2023-05-20T05:51:39;25.25;;;19.58;;
21727;SDS011;11026;50.560;17.852;2023-05-20T05:54:07;27.58;;;20.40;;
21727;SDS011;11026;50.560;17.852;2023-05-20T05:56:35;27.45;;;20.85;;
21727;SDS011;11026;50.560;17.852;2023-05-20T05:59:03;26.52;;;21.20;;
21727;SDS011;11026;50.560;17.852;2023-05-20T06:01:31;28.25;;;21.90;;
21727;SDS011;11026;50.560;17.852;2023-05-20T06:03:58;29.92;;;24.20;;
21727;SDS011;11026;50.560;17.852;2023-05-20T06:06:26;33.65;;;26.00;;
21727;SDS011;11026;50.560;17.852;2023-05-20T06:08:53;33.30;;;26.63;;
21727;SDS011;11026;50.560;17.852;2023-05-20T06:11:23;33.92;;;26.67;;
21727;SDS011;11026;50.560;17.852;2023-05-20T06:13:52;35.47;;;26.38;;
21727;SDS011;11026;50.560;17.852;2023-05-20T06:16:19;34.35;;;26.63;;
21727;SDS011;11026;50.560;17.852;2023-05-20T06:18:48;32.38;;;25.13;;
21727;SDS011;11026;50.560;17.852;2023-05-20T06:21:19;38.95;;;26.33;;
21727;SDS011;11026;50.560;17.852;2023-05-20T06:23:46;37.60;;;27.98;;
21727;SDS011;11026;50.560;17.852;2023-05-20T06:26:14;35.67;;;27.85;;
21727;SDS011;11026;50.560;17.852;2023-05-20T06:28:42;39.40;;;29.15;;
21727;SDS011;11026;50.560;17.852;2023-05-20T06:31:10;40.53;;;30.45;;
21727;SDS011;11026;50.560;17.852;2023-05-20T06:33:38;40.97;;;28.77;;
21727;SDS011;11026;50.560;17.852;2023-05-20T06:36:06;38.65;;;27.67;;
21727;SDS011;11026;50.560;17.852;2023-05-20T06:38:33;33.53;;;24.27;;
21727;SDS011;11026;50.560;17.852;2023-05-20T06:41:00;34.72;;;24.52;;
21727;SDS011;11026;50.560;17.852;2023-05-20T06:43:28;34.90;;;24.20;;
21727;SDS011;11026;50.560;17.852;2023-05-20T06:45:55;37.80;;;26.27;;
21727;SDS011;11026;50.560;17.852;2023-05-20T06:48:23;34.53;;;24.70;;
21727;SDS011;11026;50.560;17.852;2023-05-20T06:50:50;37.72;;;25.75;;
21727;SDS011;11026;50.560;17.852;2023-05-20T06:53:19;36.97;;;26.27;;
21727;SDS011;11026;50.560;17.852;2023-05-20T06:55:49;36.25;;;25.90;;
21727;SDS011;11026;50.560;17.852;2023-05-20T06:58:16;36.60;;;25.55;;
21727;SDS011;11026;50.560;17.852;2023-05-20T07:00:44;37.60;;;24.75;;
21727;SDS011;11026;50.560;17.852;2023-05-20T07:03:12;38.40;;;26.88;;
21727;SDS011;11026;50.560;17.852;2023-05-20T07:05:40;38.13;;;25.42;;
21727;SDS011;11026;50.560;17.852;2023-05-20T07:08:07;34.65;;;25.25;;
21727;SDS011;11026;50.560;17.852;2023-05-20T07:10:36;38.45;;;27.20;;
21727;SDS011;11026;50.560;17.852;2023-05-20T07:13:04;39.60;;;26.58;;
21727;SDS011;11026;50.560;17.852;2023-05-20T07:15:32;36.55;;;24.90;;
21727;SDS011;11026;50.560;17.852;2023-05-20T07:18:01;35.45;;;25.23;;
21727;SDS011;11026;50.560;17.852;2023-05-20T07:20:29;35.90;;;26.30;;
21727;SDS011;11026;50.560;17.852;2023-05-20T07:22:56;38.67;;;26.98;;
21727;SDS011;11026;50.560;17.852;2023-05-20T07:25:23;40.92;;;27.55;;
21727;SDS011;11026;50.560;17.852;2023-05-20T07:27:52;41.20;;;28.98;;
21727;SDS011;11026;50.560;17.852;2023-05-20T07:30:19;40.20;;;29.65;;
21727;SDS011;11026;50.560;17.852;2023-05-20T07:32:47;42.95;;;29.08;;
21727;SDS011;11026;50.560;17.852;2023-05-20T07:37:45;44.15;;;29.67;;
21727;SDS011;11026;50.560;17.852;2023-05-20T07:40:12;39.97;;;29.00;;
21727;SDS011;11026;50.560;17.852;2023-05-20T07:42:41;40.20;;;28.20;;
21727;SDS011;11026;50.560;17.852;2023-05-20T07:45:08;39.67;;;28.55;;
21727;SDS011;11026;50.560;17.852;2023-05-20T07:47:37;42.80;;;29.67;;
21727;SDS011;11026;50.560;17.852;2023-05-20T07:50:05;43.47;;;29.65;;
21727;SDS011;11026;50.560;17.852;2023-05-20T07:52:33;43.88;;;31.25;;
21727;SDS011;11026;50.560;17.852;2023-05-20T07:55:09;42.00;;;30.20;;
21727;SDS011;11026;50.560;17.852;2023-05-20T07:57:37;41.22;;;29.10;;
21727;SDS011;11026;50.560;17.852;2023-05-20T08:00:04;40.38;;;30.17;;
21727;SDS011;11026;50.560;17.852;2023-05-20T08:02:32;41.38;;;31.98;;
21727;SDS011;11026;50.560;17.852;2023-05-20T08:05:00;43.88;;;31.48;;
21727;SDS011;11026;50.560;17.852;2023-05-20T08:07:29;43.60;;;30.90;;
21727;SDS011;11026;50.560;17.852;2023-05-20T08:09:57;38.08;;;28.75;;
21727;SDS011;11026;50.560;17.852;2023-05-20T08:12:25;41.22;;;29.42;;
21727;SDS011;11026;50.560;17.852;2023-05-20T08:14:53;41.40;;;29.17;;
21727;SDS011;11026;50.560;17.852;2023-05-20T08:17:21;39.33;;;28.10;;
21727;SDS011;11026;50.560;17.852;2023-05-20T08:19:55;42.17;;;28.85;;
21727;SDS011;11026;50.560;17.852;2023-05-20T08:22:22;41.20;;;28.52;;
21727;SDS011;11026;50.560;17.852;2023-05-20T08:24:50;36.83;;;28.60;;
21727;SDS011;11026;50.560;17.852;2023-05-20T08:27:18;39.38;;;28.75;;
21727;SDS011;11026;50.560;17.852;2023-05-20T08:29:46;38.47;;;28.73;;
21727;SDS011;11026;50.560;17.852;2023-05-20T08:32:13;40.63;;;30.10;;
21727;SDS011;11026;50.560;17.852;2023-05-20T08:34:41;40.72;;;31.50;;
21727;SDS011;11026;50.560;17.852;2023-05-20T08:37:09;35.13;;;28.60;;
21727;SDS011;11026;50.560;17.852;2023-05-20T08:39:36;39.78;;;28.30;;
21727;SDS011;11026;50.560;17.852;2023-05-20T08:42:04;34.05;;;25.88;;
21727;SDS011;11026;50.560;17.852;2023-05-20T08:44:33;35.58;;;26.13;;
21727;SDS011;11026;50.560;17.852;2023-05-20T08:47:04;35.00;;;27.13;;
21727;SDS011;11026;50.560;17.852;2023-05-20T08:49:33;37.63;;;26.70;;
21727;SDS011;11026;50.560;17.852;2023-05-20T08:52:02;32.75;;;26.83;;
21727;SDS011;11026;50.560;17.852;2023-05-20T08:54:44;35.60;;;27.05;;
21727;SDS011;11026;50.560;17.852;2023-05-20T08:57:14;35.17;;;26.95;;
21727;SDS011;11026;50.560;17.852;2023-05-20T08:59:47;35.45;;;27.08;;
21727;SDS011;11026;50.560;17.852;2023-05-20T09:02:17;36.20;;;27.92;;
21727;SDS011;11026;50.560;17.852;2023-05-20T09:04:44;37.08;;;27.13;;
21727;SDS011;11026;50.560;17.852;2023-05-20T09:07:12;32.80;;;24.92;;
21727;SDS011;11026;50.560;17.852;2023-05-20T09:09:39;29.52;;;24.20;;
21727;SDS011;11026;50.560;17.852;2023-05-20T09:12:07;30.70;;;24.08;;
21727;SDS011;11026;50.560;17.852;2023-05-20T09:14:34;30.98;;;23.90;;
21727;SDS011;11026;50.560;17.852;2023-05-20T09:17:03;35.90;;;28.65;;
21727;SDS011;11026;50.560;17.852;2023-05-20T09:19:31;31.02;;;25.85;;
21727;SDS011;11026;50.560;17.852;2023-05-20T09:21:59;33.53;;;26.30;;
21727;SDS011;11026;50.560;17.852;2023-05-20T09:24:31;35.63;;;26.02;;
21727;SDS011;11026;50.560;17.852;2023-05-20T09:26:58;30.80;;;23.70;;
21727;SDS011;11026;50.560;17.852;2023-05-20T09:29:25;29.95;;;23.08;;
21727;SDS011;11026;50.560;17.852;2023-05-20T09:34:23;30.05;;;22.48;;
21727;SDS011;11026;50.560;17.852;2023-05-20T09:36:53;25.83;;;20.98;;
21727;SDS011;11026;50.560;17.852;2023-05-20T09:39:25;25.83;;;20.40;;
21727;SDS011;11026;50.560;17.852;2023-05-20T09:42:09;28.30;;;21.95;;
21727;SDS011;11026;50.560;17.852;2023-05-20T09:44:43;25.90;;;20.85;;
21727;SDS011;11026;50.560;17.852;2023-05-20T09:47:12;22.65;;;18.05;;
21727;SDS011;11026;50.560;17.852;2023-05-20T09:49:41;21.48;;;17.75;;
21727;SDS011;11026;50.560;17.852;2023-05-20T09:52:11;19.48;;;16.60;;
21727;SDS011;11026;50.560;17.852;2023-05-20T09:54:42;20.17;;;17.85;;
21727;SDS011;11026;50.560;17.852;2023-05-20T09:57:12;21.25;;;16.95;;
21727;SDS011;11026;50.560;17.852;2023-05-20T09:59:40;17.77;;;15.15;;
21727;SDS011;11026;50.560;17.852;2023-05-20T10:02:10;19.52;;;15.80;;
21727;SDS011;11026;50.560;17.852;2023-05-20T10:04:40;20.13;;;16.35;;
21727;SDS011;11026;50.560;17.852;2023-05-20T10:13:10;15.88;;;14.18;;
21727;SDS011;11026;50.560;17.852;2023-05-20T10:15:47;19.02;;;14.15;;
21727;SDS011;11026;50.560;17.852;2023-05-20T10:18:35;15.90;;;14.20;;
21727;SDS011;11026;50.560;17.852;2023-05-20T10:21:23;16.85;;;13.95;;
21727;SDS011;11026;50.560;17.852;2023-05-20T10:23:51;18.13;;;13.98;;
21727;SDS011;11026;50.560;17.852;2023-05-20T10:26:18;18.27;;;13.73;;
21727;SDS011;11026;50.560;17.852;2023-05-20T10:28:48;19.60;;;13.45;;
21727;SDS011;11026;50.560;17.852;2023-05-20T10:31:24;14.63;;;13.10;;
21727;SDS011;11026;50.560;17.852;2023-05-20T10:33:52;14.90;;;13.32;;
21727;SDS011;11026;50.560;17.852;2023-05-20T10:36:24;16.73;;;14.48;;
21727;SDS011;11026;50.560;17.852;2023-05-20T10:38:58;18.05;;;14.70;;
21727;SDS011;11026;50.560;17.852;2023-05-20T10:41:26;18.92;;;15.00;;
21727;SDS011;11026;50.560;17.852;2023-05-20T10:44:01;15.85;;;14.20;;
21727;SDS011;11026;50.560;17.852;2023-05-20T10:46:30;17.27;;;14.15;;
21727;SDS011;11026;50.560;17.852;2023-05-20T10:49:19;13.85;;;12.38;;
21727;SDS011;11026;50.560;17.852;2023-05-20T10:54:20;15.65;;;12.75;;
21727;SDS011;11026;50.560;17.852;2023-05-20T10:56:52;18.48;;;13.15;;
21727;SDS011;11026;50.560;17.852;2023-05-20T11:01:52;18.02;;;13.50;;
21727;SDS011;11026;50.560;17.852;2023-05-20T11:04:20;15.13;;;12.93;;
21727;SDS011;11026;50.560;17.852;2023-05-20T11:06:57;19.83;;;14.15;;
21727;SDS011;11026;50.560;17.852;2023-05-20T11:09:25;17.20;;;15.40;;
21727;SDS011;11026;50.560;17.852;2023-05-20T11:11:52;17.95;;;15.95;;
21727;SDS011;11026;50.560;17.852;2023-05-20T11:14:30;23.40;;;15.85;;
21727;SDS011;11026;50.560;17.852;2023-05-20T11:16:59;20.65;;;16.83;;
21727;SDS011;11026;50.560;17.852;2023-05-20T11:19:27;18.02;;;16.13;;
21727;SDS011;11026;50.560;17.852;2023-05-20T11:21:54;17.52;;;15.73;;
21727;SDS011;11026;50.560;17.852;2023-05-20T11:24:23;20.00;;;16.75;;
21727;SDS011;11026;50.560;17.852;2023-05-20T11:26:53;18.30;;;16.02;;
21727;SDS011;11026;50.560;17.852;2023-05-20T11:29:21;18.13;;;15.57;;
21727;SDS011;11026;50.560;17.852;2023-05-20T11:31:50;16.88;;;15.07;;
21727;SDS011;11026;50.560;17.852;2023-05-20T11:34:21;17.10;;;14.98;;
21727;SDS011;11026;50.560;17.852;2023-05-20T11:36:56;18.55;;;15.60;;
21727;SDS011;11026;50.560;17.852;2023-05-20T11:39:24;17.20;;;15.38;;
21727;SDS011;11026;50.560;17.852;2023-05-20T11:41:57;17.30;;;15.05;;
21727;SDS011;11026;50.560;17.852;2023-05-20T11:44:24;18.60;;;16.58;;
21727;SDS011;11026;50.560;17.852;2023-05-20T11:46:57;17.50;;;15.70;;
21727;SDS011;11026;50.560;17.852;2023-05-20T11:49:26;18.95;;;16.27;;
21727;SDS011;11026;50.560;17.852;2023-05-20T11:51:55;18.13;;;16.23;;
21727;SDS011;11026;50.560;17.852;2023-05-20T11:54:23;17.92;;;15.88;;
21727;SDS011;11026;50.560;17.852;2023-05-20T11:56:52;17.73;;;15.82;;
21727;SDS011;11026;50.560;17.852;2023-05-20T11:59:22;18.55;;;15.32;;
21727;SDS011;11026;50.560;17.852;2023-05-20T12:01:50;16.92;;;15.23;;
21727;SDS011;11026;50.560;17.852;2023-05-20T12:04:18;16.55;;;14.85;;
21727;SDS011;11026;50.560;17.852;2023-05-20T12:06:45;17.92;;;14.98;;
21727;SDS011;11026;50.560;17.852;2023-05-20T12:09:18;17.00;;;14.50;;
21727;SDS011;11026;50.560;17.852;2023-05-20T12:11:46;16.10;;;14.50;;
21727;SDS011;11026;50.560;17.852;2023-05-20T12:14:13;17.75;;;15.55;;
21727;SDS011;11026;50.560;17.852;2023-05-20T12:16:43;17.80;;;15.82;;
21727;SDS011;11026;50.560;17.852;2023-05-20T12:19:10;16.58;;;14.60;;
21727;SDS011;11026;50.560;17.852;2023-05-20T12:21:38;16.95;;;15.23;;
21727;SDS011;11026;50.560;17.852;2023-05-20T12:24:05;17.65;;;15.75;;
21727;SDS011;11026;50.560;17.852;2023-05-20T12:26:34;17.80;;;16.00;;
21727;SDS011;11026;50.560;17.852;2023-05-20T12:29:02;17.88;;;15.77;;
21727;SDS011;11026;50.560;17.852;2023-05-20T12:31:31;17.80;;;15.88;;
21727;SDS011;11026;50.560;17.852;2023-05-20T12:34:01;17.70;;;15.68;;
21727;SDS011;11026;50.560;17.852;2023-05-20T12:36:31;19.20;;;15.15;;
21727;SDS011;11026;50.560;17.852;2023-05-20T12:38:59;17.92;;;15.73;;
21727;SDS011;11026;50.560;17.852;2023-05-20T12:41:28;16.67;;;14.93;;
21727;SDS011;11026;50.560;17.852;2023-05-20T12:43:55;17.42;;;15.63;;
21727;SDS011;11026;50.560;17.852;2023-05-20T12:46:22;18.00;;;15.48;;
21727;SDS011;11026;50.560;17.852;2023-05-20T12:48:49;18.90;;;17.00;;
21727;SDS011;11026;50.560;17.852;2023-05-20T12:51:17;17.95;;;16.05;;
21727;SDS011;11026;50.560;17.852;2023-05-20T12:53:52;20.75;;;17.13;;
21727;SDS011;11026;50.560;17.852;2023-05-20T12:56:19;21.83;;;17.58;;
21727;SDS011;11026;50.560;17.852;2023-05-20T12:58:48;20.08;;;17.92;;
21727;SDS011;11026;50.560;17.852;2023-05-20T13:01:15;18.45;;;15.68;;
21727;SDS011;11026;50.560;17.852;2023-05-20T13:03:42;22.58;;;17.92;;
21727;SDS011;11026;50.560;17.852;2023-05-20T13:06:10;19.13;;;16.80;;
21727;SDS011;11026;50.560;17.852;2023-05-20T13:08:38;21.25;;;17.85;;
21727;SDS011;11026;50.560;17.852;2023-05-20T13:11:12;20.10;;;17.92;;
21727;SDS011;11026;50.560;17.852;2023-05-20T13:13:43;20.67;;;18.35;;
21727;SDS011;11026;50.560;17.852;2023-05-20T13:16:10;21.45;;;17.17;;
21727;SDS011;11026;50.560;17.852;2023-05-20T13:18:37;21.45;;;18.58;;
21727;SDS011;11026;50.560;17.852;2023-05-20T13:21:06;22.40;;;19.38;;
21727;SDS011;11026;50.560;17.852;2023-05-20T13:23:35;19.65;;;17.55;;
21727;SDS011;11026;50.560;17.852;2023-05-20T13:26:03;20.13;;;17.98;;
21727;SDS011;11026;50.560;17.852;2023-05-20T13:28:30;18.88;;;16.92;;
21727;SDS011;11026;50.560;17.852;2023-05-20T13:30:58;20.75;;;18.27;;
21727;SDS011;11026;50.560;17.852;2023-05-20T13:33:25;21.13;;;18.20;;
21727;SDS011;11026;50.560;17.852;2023-05-20T13:35:54;20.25;;;17.77;;
21727;SDS011;11026;50.560;17.852;2023-05-20T13:38:21;28.50;;;19.88;;
21727;SDS011;11026;50.560;17.852;2023-05-20T13:40:50;20.95;;;17.60;;
21727;SDS011;11026;50.560;17.852;2023-05-20T13:43:19;22.00;;;19.33;;
21727;SDS011;11026;50.560;17.852;2023-05-20T13:45:47;22.00;;;18.52;;
21727;SDS011;11026;50.560;17.852;2023-05-20T13:48:15;21.27;;;17.98;;
21727;SDS011;11026;50.560;17.852;2023-05-20T13:50:44;21.27;;;17.92;;
21727;SDS011;11026;50.560;17.852;2023-05-20T13:53:11;20.35;;;17.23;;
21727;SDS011;11026;50.560;17.852;2023-05-20T13:55:39;22.02;;;17.17;;
21727;SDS011;11026;50.560;17.852;2023-05-20T13:58:13;19.25;;;17.20;;
21727;SDS011;11026;50.560;17.852;2023-05-20T14:00:42;20.20;;;17.30;;
21727;SDS011;11026;50.560;17.852;2023-05-20T14:03:11;20.17;;;17.25;;
21727;SDS011;11026;50.560;17.852;2023-05-20T14:05:39;18.55;;;16.60;;
21727;SDS011;11026;50.560;17.852;2023-05-20T14:08:08;18.10;;;16.30;;
21727;SDS011;11026;50.560;17.852;2023-05-20T14:10:36;17.10;;;15.38;;
21727;SDS011;11026;50.560;17.852;2023-05-20T14:13:04;16.85;;;15.05;;
21727;SDS011;11026;50.560;17.852;2023-05-20T14:15:34;17.58;;;15.27;;
21727;SDS011;11026;50.560;17.852;2023-05-20T14:18:02;18.65;;;16.25;;
21727;SDS011;11026;50.560;17.852;2023-05-20T14:20:31;16.05;;;14.43;;
21727;SDS011;11026;50.560;17.852;2023-05-20T14:22:59;16.55;;;14.77;;
21727;SDS011;11026;50.560;17.852;2023-05-20T14:25:27;16.90;;;15.05;;
21727;SDS011;11026;50.560;17.852;2023-05-20T14:27:54;18.48;;;14.98;;
21727;SDS011;11026;50.560;17.852;2023-05-20T14:30:22;15.65;;;14.13;;
21727;SDS011;11026;50.560;17.852;2023-05-20T14:32:50;15.93;;;14.23;;
21727;SDS011;11026;50.560;17.852;2023-05-20T14:35:18;15.68;;;14.02;;
21727;SDS011;11026;50.560;17.852;2023-05-20T14:37:46;16.08;;;14.38;;
21727;SDS011;11026;50.560;17.852;2023-05-20T14:40:14;15.60;;;13.98;;
21727;SDS011;11026;50.560;17.852;2023-05-20T14:42:43;15.43;;;13.85;;